createdAt,value
2023-03-05T00:01:37.148Z,11.30
2023-03-05T00:04:06.609Z,9.15
2023-03-05T00:06:38.231Z,8.68
2023-03-05T00:09:06.766Z,7.87
2023-03-05T00:11:40.279Z,8.98
2023-03-05T00:14:08.801Z,7.35
2023-03-05T00:16:37.761Z,12.13
2023-03-05T00:19:06.714Z,10.52
2023-03-05T00:21:37.322Z,7.43
2023-03-05T00:24:08.091Z,8.50
2023-03-05T00:26:38.087Z,9.65
2023-03-05T00:29:07.463Z,11.98
2023-03-05T00:31:41.784Z,23.30
2023-03-05T00:34:12.811Z,17.60
2023-03-05T00:36:42.790Z,22.40
2023-03-05T00:39:12.305Z,20.75
2023-03-05T00:41:41.301Z,27.88
2023-03-05T00:44:10.334Z,33.33
2023-03-05T00:46:39.257Z,21.33
2023-03-05T00:49:09.284Z,23.50
2023-03-05T00:51:40.710Z,28.00
2023-03-05T00:54:09.326Z,27.95
2023-03-05T00:56:47.305Z,15.27
2023-03-05T00:59:27.472Z,10.82
2023-03-05T01:01:56.378Z,13.20
2023-03-05T01:04:27.872Z,11.25
2023-03-05T01:06:56.748Z,8.68
2023-03-05T01:09:26.872Z,11.20
2023-03-05T01:11:56.228Z,7.90
2023-03-05T01:14:25.746Z,9.35
2023-03-05T01:16:54.860Z,8.35
2023-03-05T01:19:23.614Z,12.20
2023-03-05T01:21:52.436Z,17.17
2023-03-05T01:24:21.360Z,9.13
2023-03-05T01:26:50.153Z,14.10
2023-03-05T01:29:19.082Z,11.30
2023-03-05T01:31:47.938Z,14.25
2023-03-05T01:34:16.663Z,9.63
2023-03-05T01:36:50.574Z,7.38
2023-03-05T01:39:19.463Z,6.82
2023-03-05T01:41:47.903Z,10.15
2023-03-05T01:44:25.543Z,11.45
2023-03-05T01:46:54.380Z,14.38
2023-03-05T01:49:26.728Z,15.10
2023-03-05T01:52:11.217Z,13.33
2023-03-05T01:54:51.745Z,18.42
2023-03-05T01:57:35.938Z,18.98
2023-03-05T02:00:17.656Z,14.05
2023-03-05T02:02:48.647Z,10.73
2023-03-05T02:05:27.668Z,14.25
2023-03-05T02:08:07.989Z,14.57
2023-03-05T02:10:43.311Z,11.32
2023-03-05T02:13:15.194Z,10.23
2023-03-05T02:15:45.229Z,14.35
2023-03-05T02:18:17.091Z,17.00
2023-03-05T02:20:56.990Z,16.08
2023-03-05T02:23:29.090Z,10.13
2023-03-05T02:25:57.732Z,13.77
2023-03-05T02:28:35.779Z,14.88
2023-03-05T02:31:13.740Z,14.05
2023-03-05T02:33:43.292Z,27.73
2023-03-05T02:36:12.981Z,17.85
2023-03-05T02:38:41.473Z,14.93
2023-03-05T02:41:10.377Z,14.18
2023-03-05T02:43:38.927Z,14.30
2023-03-05T02:46:08.351Z,15.95
2023-03-05T02:48:36.603Z,20.88
2023-03-05T02:51:05.268Z,24.20
2023-03-05T02:53:33.705Z,25.55
2023-03-05T02:56:02.021Z,16.30
2023-03-05T02:58:34.308Z,24.15
2023-03-05T03:01:02.757Z,23.02
2023-03-05T03:03:31.766Z,27.15
2023-03-05T03:06:01.219Z,26.63
2023-03-05T03:08:29.454Z,40.25
2023-03-05T03:11:09.946Z,25.17
2023-03-05T03:13:39.289Z,26.25
2023-03-05T03:16:10.106Z,21.58
2023-03-05T03:18:38.356Z,23.13
2023-03-05T03:21:06.766Z,39.45
2023-03-05T03:23:34.974Z,28.83
2023-03-05T03:26:02.929Z,29.17
2023-03-05T03:28:31.232Z,27.90
2023-03-05T03:30:59.325Z,27.95
2023-03-05T03:33:28.156Z,24.50
2023-03-05T03:36:00.591Z,18.83
2023-03-05T03:38:29.802Z,14.70
2023-03-05T03:40:58.209Z,17.65
2023-03-05T03:43:26.757Z,29.58
2023-03-05T03:45:54.877Z,16.52
2023-03-05T03:48:22.844Z,15.88
2023-03-05T03:50:50.984Z,13.88
2023-03-05T03:53:18.931Z,16.60
2023-03-05T03:55:49.581Z,18.35
2023-03-05T03:58:17.642Z,17.10
2023-03-05T04:00:45.971Z,16.98
2023-03-05T04:03:14.057Z,16.98
2023-03-05T04:05:42.420Z,11.38
2023-03-05T04:08:12.589Z,18.33
2023-03-05T04:10:40.644Z,22.83
2023-03-05T04:13:09.232Z,16.50
2023-03-05T04:15:37.608Z,11.85
2023-03-05T04:18:05.580Z,20.27
2023-03-05T04:20:34.195Z,17.73
2023-03-05T04:23:02.199Z,22.25
2023-03-05T04:25:30.368Z,11.85
2023-03-05T04:27:58.947Z,15.30
2023-03-05T04:30:27.123Z,28.15
2023-03-05T04:32:55.380Z,25.38
2023-03-05T04:35:23.315Z,15.38
2023-03-05T04:37:51.746Z,15.38
2023-03-05T04:40:21.103Z,10.10
2023-03-05T04:42:49.676Z,24.05
2023-03-05T04:45:17.854Z,25.17
2023-03-05T04:47:46.377Z,33.85
2023-03-05T04:50:14.433Z,25.80
2023-03-05T04:52:43.059Z,24.75
2023-03-05T04:55:12.488Z,27.17
2023-03-05T04:57:40.839Z,31.75
2023-03-05T05:00:17.394Z,18.70
2023-03-05T05:02:47.068Z,17.73
2023-03-05T05:05:16.909Z,19.95
2023-03-05T05:07:45.531Z,20.67
2023-03-05T05:10:13.908Z,15.20
2023-03-05T05:12:42.604Z,15.48
2023-03-05T05:15:12.551Z,15.65
2023-03-05T05:17:40.652Z,32.65
2023-03-05T05:20:11.700Z,14.82
2023-03-05T05:22:40.215Z,15.60
2023-03-05T05:25:08.810Z,14.00
2023-03-05T05:27:37.426Z,15.85
2023-03-05T05:30:06.350Z,16.83
2023-03-05T05:32:34.463Z,19.27
2023-03-05T05:35:02.777Z,22.08
2023-03-05T05:37:31.329Z,22.10
2023-03-05T05:40:00.021Z,22.63
2023-03-05T05:42:29.946Z,19.70
2023-03-05T05:44:58.625Z,26.23
2023-03-05T05:47:28.115Z,16.83
2023-03-05T05:49:56.954Z,41.45
2023-03-05T05:52:25.522Z,14.68
2023-03-05T05:54:53.828Z,16.67
2023-03-05T05:57:22.651Z,29.15
2023-03-05T05:59:51.739Z,24.10
2023-03-05T06:02:20.088Z,15.15
2023-03-05T06:04:52.348Z,17.80
2023-03-05T06:07:20.557Z,11.18
2023-03-05T06:09:49.205Z,18.23
2023-03-05T06:12:18.018Z,14.77
2023-03-05T06:14:46.239Z,12.00
2023-03-05T06:17:29.835Z,20.00
2023-03-05T06:19:58.881Z,11.18
2023-03-05T06:22:26.745Z,12.98
2023-03-05T06:24:54.557Z,11.05
2023-03-05T06:27:22.606Z,20.23
2023-03-05T06:29:53.498Z,8.48
2023-03-05T06:32:21.646Z,14.38
2023-03-05T06:34:50.316Z,32.47
2023-03-05T06:37:18.350Z,29.33
2023-03-05T06:39:45.942Z,27.13
2023-03-05T06:42:14.305Z,14.55
2023-03-05T06:44:42.832Z,49.78
2023-03-05T06:47:10.925Z,24.30
2023-03-05T06:49:39.345Z,18.95
2023-03-05T06:52:10.042Z,14.00
2023-03-05T06:54:37.551Z,9.70
2023-03-05T06:57:05.076Z,17.63
2023-03-05T06:59:33.142Z,17.83
2023-03-05T07:02:00.694Z,36.35
2023-03-05T07:04:28.692Z,27.08
2023-03-05T07:06:57.138Z,22.42
2023-03-05T07:09:25.069Z,24.88
2023-03-05T07:11:53.103Z,26.52
2023-03-05T07:14:21.027Z,23.90
2023-03-05T07:16:48.443Z,24.88
2023-03-05T07:19:16.537Z,18.15
2023-03-05T07:21:44.340Z,16.48
2023-03-05T07:24:11.933Z,21.80
2023-03-05T07:26:40.044Z,19.13
2023-03-05T07:29:07.567Z,13.32
2023-03-05T07:31:34.973Z,13.13
2023-03-05T07:34:03.157Z,12.40
2023-03-05T07:36:31.128Z,14.55
2023-03-05T07:38:58.984Z,10.00
2023-03-05T07:41:26.932Z,15.35
2023-03-05T07:43:54.794Z,18.95
2023-03-05T07:46:25.214Z,13.60
2023-03-05T07:48:54.606Z,22.33
2023-03-05T07:51:22.987Z,13.13
2023-03-05T07:53:51.007Z,22.27
2023-03-05T07:56:25.504Z,15.30
2023-03-05T07:58:53.480Z,17.50
2023-03-05T08:01:21.610Z,14.05
2023-03-05T08:03:49.758Z,15.77
2023-03-05T08:06:17.202Z,17.05
2023-03-05T08:08:45.223Z,18.58
2023-03-05T08:11:14.414Z,11.50
2023-03-05T08:13:43.030Z,16.30
2023-03-05T08:16:15.499Z,16.15
2023-03-05T08:18:43.564Z,16.35
2023-03-05T08:21:22.709Z,13.18
2023-03-05T08:23:50.647Z,14.88
2023-03-05T08:26:20.731Z,13.02
2023-03-05T08:28:48.737Z,9.52
2023-03-05T08:31:16.965Z,12.30
2023-03-05T08:33:44.518Z,9.32
2023-03-05T08:36:13.211Z,10.52
2023-03-05T08:38:41.945Z,10.07
2023-03-05T08:41:09.634Z,8.48
2023-03-05T08:43:37.592Z,12.23
2023-03-05T08:46:05.912Z,17.90
2023-03-05T08:48:34.388Z,21.65
2023-03-05T08:51:07.334Z,11.50
2023-03-05T08:53:35.456Z,12.43
2023-03-05T08:56:03.594Z,11.75
2023-03-05T08:58:31.515Z,13.07
2023-03-05T09:00:59.182Z,9.98
2023-03-05T09:03:26.932Z,10.27
2023-03-05T09:05:54.796Z,14.93
2023-03-05T09:08:22.615Z,12.85
2023-03-05T09:10:50.336Z,12.77
2023-03-05T09:13:17.967Z,8.20
2023-03-05T09:15:45.826Z,11.25
2023-03-05T09:18:13.951Z,12.35
2023-03-05T09:20:42.269Z,9.25
2023-03-05T09:23:10.457Z,8.65
2023-03-05T09:25:41.401Z,10.52
2023-03-05T09:28:09.283Z,9.93
2023-03-05T09:30:37.177Z,13.02
2023-03-05T09:33:05.167Z,19.17
2023-03-05T09:35:35.739Z,12.98
2023-03-05T09:38:04.123Z,11.93
2023-03-05T09:40:51.495Z,13.73
2023-03-05T09:43:35.426Z,9.05
2023-03-05T09:46:06.879Z,8.65
2023-03-05T09:48:47.651Z,13.45
2023-03-05T09:51:24.537Z,13.07
2023-03-05T09:54:03.245Z,23.40
2023-03-05T09:56:40.154Z,16.15
2023-03-05T09:59:40.700Z,7.47
2023-03-05T10:02:32.188Z,7.78
2023-03-05T10:05:20.498Z,35.17
2023-03-05T10:07:55.227Z,14.38
2023-03-05T10:10:37.150Z,7.25
2023-03-05T10:13:11.843Z,10.90
2023-03-05T10:15:52.211Z,10.38
2023-03-05T10:18:52.589Z,8.88
2023-03-05T10:21:32.454Z,22.63
2023-03-05T10:24:14.842Z,37.15
2023-03-05T10:27:20.599Z,19.10
2023-03-05T10:29:57.858Z,16.17
2023-03-05T10:32:47.003Z,11.02
2023-03-05T10:35:14.962Z,12.55
2023-03-05T10:38:01.003Z,10.27
2023-03-05T10:40:42.590Z,13.60
2023-03-05T10:43:31.833Z,19.45
2023-03-05T10:45:59.552Z,16.00
2023-03-05T10:48:39.751Z,18.13
2023-03-05T10:51:23.359Z,13.55
2023-03-05T10:53:58.353Z,20.77
2023-03-05T10:56:27.440Z,23.73
2023-03-05T10:58:54.895Z,14.95
2023-03-05T11:01:28.250Z,9.90
2023-03-05T11:04:00.047Z,22.63
2023-03-05T11:06:35.566Z,25.33
2023-03-05T11:09:24.140Z,21.02
2023-03-05T11:12:05.946Z,23.58
2023-03-05T11:14:34.030Z,35.63
2023-03-05T11:17:02.670Z,20.10
2023-03-05T11:19:33.151Z,17.98
2023-03-05T11:22:20.958Z,21.67
2023-03-05T11:25:15.494Z,33.28
2023-03-05T11:27:51.034Z,30.05
2023-03-05T11:30:27.188Z,57.97
2023-03-05T11:33:15.695Z,29.15
2023-03-05T11:35:44.324Z,35.65
2023-03-05T11:38:24.628Z,33.45
2023-03-05T11:40:54.238Z,69.18
2023-03-05T11:43:23.608Z,67.45
2023-03-05T11:46:02.770Z,44.33
2023-03-05T11:48:36.227Z,61.25
2023-03-05T11:51:34.374Z,45.35
2023-03-05T11:54:06.772Z,54.30
2023-03-05T11:56:37.239Z,67.88
2023-03-05T11:59:18.360Z,67.10
2023-03-05T12:01:53.684Z,52.72
2023-03-05T12:04:21.208Z,50.83
2023-03-05T12:06:57.558Z,55.15
2023-03-05T12:09:40.925Z,60.58
2023-03-05T12:12:32.226Z,38.95
2023-03-05T12:15:12.086Z,48.78
2023-03-05T12:17:46.493Z,57.33
2023-03-05T12:20:38.873Z,75.85
2023-03-05T12:23:06.712Z,60.08
2023-03-05T12:25:45.612Z,66.60
2023-03-05T12:28:16.346Z,61.80
2023-03-05T12:30:43.958Z,77.53
2023-03-05T12:33:30.060Z,88.20
2023-03-05T12:36:22.545Z,101.82
2023-03-05T12:38:56.785Z,95.05
2023-03-05T12:41:25.904Z,103.57
2023-03-05T12:44:07.486Z,90.28
2023-03-05T12:46:45.379Z,101.32
2023-03-05T12:49:23.758Z,89.75
2023-03-05T12:51:55.477Z,96.30
2023-03-05T12:54:28.020Z,133.13
2023-03-05T12:56:57.196Z,101.80
2023-03-05T12:59:30.628Z,101.05
2023-03-05T13:02:00.951Z,82.00
2023-03-05T13:04:30.742Z,67.85
2023-03-05T13:07:02.319Z,84.32
2023-03-05T13:09:33.528Z,74.55
2023-03-05T13:12:01.175Z,70.85
2023-03-05T13:14:41.409Z,68.47
2023-03-05T13:17:38.197Z,69.95
2023-03-05T13:20:27.962Z,58.38
2023-03-05T13:23:18.384Z,46.60
2023-03-05T13:25:55.853Z,34.92
2023-03-05T13:28:24.077Z,35.17
2023-03-05T13:30:59.032Z,39.47
2023-03-05T13:33:32.080Z,37.75
2023-03-05T13:38:40.723Z,64.60
2023-03-05T13:41:11.608Z,48.10
2023-03-05T13:43:44.003Z,42.55
2023-03-05T13:46:11.468Z,50.72
2023-03-05T13:48:39.439Z,44.83
2023-03-05T13:51:09.080Z,52.78
2023-03-05T13:53:36.939Z,37.72
2023-03-05T13:56:06.861Z,47.05
2023-03-05T13:58:52.187Z,89.90
2023-03-05T14:01:40.783Z,82.63
2023-03-05T14:04:14.489Z,93.07
2023-03-05T14:07:06.106Z,29.88
2023-03-05T14:09:40.090Z,31.45
2023-03-05T14:12:30.534Z,48.95
2023-03-05T14:14:59.847Z,52.53
2023-03-05T14:17:27.569Z,88.50
2023-03-05T14:20:13.282Z,84.35
2023-03-05T14:22:42.891Z,105.65
2023-03-05T14:25:39.958Z,81.28
2023-03-05T14:28:19.881Z,88.82
2023-03-05T14:30:48.523Z,80.07
2023-03-05T14:33:28.652Z,98.35
2023-03-05T14:35:57.510Z,95.75
2023-03-05T14:38:27.753Z,86.95
2023-03-05T14:40:56.410Z,39.70
2023-03-05T14:43:24.207Z,72.80
2023-03-05T14:45:52.035Z,54.42
2023-03-05T14:48:19.840Z,66.10
2023-03-05T14:50:51.495Z,114.80
2023-03-05T14:53:23.818Z,112.72
2023-03-05T14:55:58.289Z,111.80
2023-03-05T14:58:28.404Z,95.60
2023-03-05T15:00:56.996Z,92.22
2023-03-05T15:03:24.577Z,93.82
2023-03-05T15:05:53.415Z,97.18
2023-03-05T15:08:23.019Z,88.97
2023-03-05T15:10:50.994Z,100.70
2023-03-05T15:13:18.864Z,101.65
2023-03-05T15:15:46.773Z,52.08
2023-03-05T15:18:15.950Z,92.53
2023-03-05T15:20:43.819Z,77.68
2023-03-05T15:23:12.847Z,61.47
2023-03-05T15:25:40.589Z,62.88
2023-03-05T15:28:09.484Z,67.70
2023-03-05T15:30:41.316Z,58.95
2023-03-05T15:33:10.826Z,58.05
2023-03-05T15:35:39.131Z,83.88
2023-03-05T15:38:06.670Z,73.40
2023-03-05T15:40:34.488Z,80.50
2023-03-05T15:43:02.092Z,88.45
2023-03-05T15:45:31.603Z,82.47
2023-03-05T15:47:59.842Z,86.70
2023-03-05T15:50:27.222Z,76.35
2023-03-05T15:52:55.082Z,101.72
2023-03-05T15:55:22.500Z,71.15
2023-03-05T15:57:51.177Z,77.18
2023-03-05T16:00:27.186Z,74.40
2023-03-05T16:02:54.658Z,50.35
2023-03-05T16:05:22.420Z,39.95
2023-03-05T16:07:51.316Z,34.88
2023-03-05T16:10:21.493Z,31.83
2023-03-05T16:12:50.204Z,46.42
2023-03-05T16:15:18.718Z,57.75
2023-03-05T16:17:47.776Z,55.92
2023-03-05T16:20:15.478Z,45.97
2023-03-05T16:22:43.471Z,80.50
2023-03-05T16:25:11.044Z,79.78
2023-03-05T16:27:38.703Z,81.30
2023-03-05T16:30:07.313Z,65.30
2023-03-05T16:32:34.939Z,73.60
2023-03-05T16:35:02.672Z,55.13
2023-03-05T16:37:30.037Z,82.00
2023-03-05T16:40:00.976Z,114.45
2023-03-05T16:42:28.636Z,95.65
2023-03-05T16:44:56.617Z,142.95
2023-03-05T16:47:24.133Z,136.48
2023-03-05T16:49:51.517Z,138.68
2023-03-05T16:52:20.831Z,172.57
2023-03-05T16:54:48.399Z,209.07
2023-03-05T16:57:16.147Z,136.98
2023-03-05T16:59:43.858Z,122.10
2023-03-05T17:02:12.980Z,121.07
2023-03-05T17:04:40.783Z,127.97
2023-03-05T17:07:08.503Z,98.28
2023-03-05T17:09:36.226Z,113.88
2023-03-05T17:12:05.149Z,121.97
2023-03-05T17:14:32.740Z,126.00
2023-03-05T17:17:01.061Z,117.50
2023-03-05T17:19:28.652Z,105.72
2023-03-05T17:21:55.897Z,108.20
2023-03-05T17:24:23.484Z,104.18
2023-03-05T17:26:51.132Z,119.32
2023-03-05T17:29:19.366Z,118.13
2023-03-05T17:31:46.897Z,101.60
2023-03-05T17:34:15.710Z,80.22
2023-03-05T17:36:45.296Z,81.05
2023-03-05T17:39:13.587Z,84.50
2023-03-05T17:41:41.347Z,76.82
2023-03-05T17:44:09.065Z,89.40
2023-03-05T17:46:36.699Z,84.60
2023-03-05T17:49:04.051Z,69.07
2023-03-05T17:51:31.366Z,51.17
2023-03-05T17:53:59.451Z,39.08
2023-03-05T17:56:26.981Z,33.67
2023-03-05T17:58:54.592Z,29.80
2023-03-05T18:01:23.844Z,33.63
2023-03-05T18:03:51.508Z,39.35
2023-03-05T18:06:19.130Z,34.53
2023-03-05T18:08:46.909Z,34.10
2023-03-05T18:11:14.473Z,38.05
2023-03-05T18:13:43.093Z,31.65
2023-03-05T18:16:10.881Z,32.20
2023-03-05T18:18:38.289Z,46.15
2023-03-05T18:21:05.952Z,66.07
2023-03-05T18:23:33.506Z,97.80
2023-03-05T18:26:00.860Z,98.85
2023-03-05T18:28:28.873Z,109.47
2023-03-05T18:30:56.254Z,101.72
2023-03-05T18:33:24.797Z,92.05
2023-03-05T18:35:52.849Z,81.72
2023-03-05T18:38:25.226Z,68.40
2023-03-05T18:40:53.154Z,68.80
2023-03-05T18:43:21.142Z,61.88
2023-03-05T18:45:49.491Z,53.70
2023-03-05T18:48:17.576Z,58.60
2023-03-05T18:50:45.218Z,58.45
2023-03-05T18:53:13.588Z,66.72
2023-03-05T18:55:45.088Z,65.57
2023-03-05T18:58:15.509Z,68.07
2023-03-05T19:00:44.939Z,80.40
2023-03-05T19:03:12.671Z,88.70
2023-03-05T19:05:40.674Z,79.57
2023-03-05T19:08:08.316Z,87.50
2023-03-05T19:10:35.788Z,69.13
2023-03-05T19:13:39.247Z,77.53
2023-03-05T19:16:14.645Z,58.42
2023-03-05T19:18:57.013Z,61.58
2023-03-05T19:21:24.678Z,59.70
2023-03-05T19:23:51.924Z,53.00
2023-03-05T19:26:19.080Z,37.22
2023-03-05T19:28:46.587Z,36.47
2023-03-05T19:31:17.694Z,31.98
2023-03-05T19:33:45.017Z,30.67
2023-03-05T19:36:12.468Z,26.40
2023-03-05T19:38:40.362Z,25.52
2023-03-05T19:41:08.653Z,43.42
2023-03-05T19:43:36.169Z,46.92
2023-03-05T19:46:04.722Z,48.83
2023-03-05T19:48:32.495Z,53.35
2023-03-05T19:51:00.679Z,59.13
2023-03-05T19:53:28.149Z,70.43
2023-03-05T19:55:56.398Z,78.15
2023-03-05T19:58:23.994Z,76.10
2023-03-05T20:00:51.770Z,71.43
2023-03-05T20:03:18.965Z,60.03
2023-03-05T20:05:46.474Z,65.93
2023-03-05T20:08:13.865Z,62.70
2023-03-05T20:10:41.077Z,46.67
2023-03-05T20:13:08.650Z,43.70
2023-03-05T20:15:36.118Z,28.13
2023-03-05T20:18:03.852Z,17.90
2023-03-05T20:20:31.491Z,15.15
2023-03-05T20:22:58.875Z,15.93
2023-03-05T20:25:26.292Z,17.95
2023-03-05T20:27:53.862Z,13.85
2023-03-05T20:30:21.588Z,16.52
2023-03-05T20:32:49.274Z,12.98
2023-03-05T20:35:17.677Z,16.77
2023-03-05T20:38:05.294Z,14.18
2023-03-05T20:40:32.886Z,9.85
2023-03-05T20:43:00.249Z,16.77
2023-03-05T20:45:28.176Z,14.32
2023-03-05T20:47:55.421Z,16.27
2023-03-05T20:50:23.462Z,12.80
2023-03-05T20:52:50.721Z,11.30
2023-03-05T20:55:18.041Z,13.13
2023-03-05T20:57:46.357Z,11.63
2023-03-05T21:00:14.398Z,12.27
2023-03-05T21:02:41.751Z,10.73
2023-03-05T21:05:09.388Z,11.13
2023-03-05T21:07:36.918Z,10.82
2023-03-05T21:10:04.640Z,11.43
2023-03-05T21:12:32.995Z,11.70
2023-03-05T21:15:01.151Z,17.77
2023-03-05T21:17:28.605Z,20.45
2023-03-05T21:19:56.423Z,19.05
2023-03-05T21:22:24.061Z,62.10
2023-03-05T21:25:15.584Z,104.93
2023-03-05T21:27:43.509Z,101.38
2023-03-05T21:30:11.523Z,100.30
2023-03-05T21:32:39.173Z,105.10
2023-03-05T21:35:07.117Z,90.97
2023-03-05T21:37:36.595Z,87.03
2023-03-05T21:40:04.888Z,75.57
2023-03-05T21:42:32.642Z,88.68
2023-03-05T21:44:59.857Z,71.28
2023-03-05T21:47:27.167Z,69.60
2023-03-05T21:49:54.511Z,77.15
2023-03-05T21:52:22.603Z,70.97
2023-03-05T21:54:49.906Z,68.22
2023-03-05T21:57:17.624Z,71.47
2023-03-05T21:59:45.277Z,57.83
2023-03-05T22:02:13.355Z,71.43
2023-03-05T22:04:40.800Z,61.78
2023-03-05T22:07:08.297Z,59.70
2023-03-05T22:09:35.959Z,60.38
2023-03-05T22:12:04.534Z,56.08
2023-03-05T22:14:32.436Z,56.38
2023-03-05T22:17:01.904Z,54.50
2023-03-05T22:19:30.234Z,62.20
2023-03-05T22:21:57.992Z,67.18
2023-03-05T22:24:25.732Z,62.30
2023-03-05T22:26:53.259Z,61.08
2023-03-05T22:29:21.235Z,54.08
2023-03-05T22:31:48.542Z,53.80
2023-03-05T22:34:16.029Z,68.70
2023-03-05T22:36:43.389Z,74.75
2023-03-05T22:39:10.718Z,53.13
2023-03-05T22:41:40.972Z,71.93
2023-03-05T22:44:08.842Z,59.03
2023-03-05T22:46:36.735Z,59.22
2023-03-05T22:49:03.960Z,67.57
2023-03-05T22:51:31.646Z,57.10
2023-03-05T22:53:59.105Z,60.53
2023-03-05T22:56:26.359Z,65.05
2023-03-05T22:58:54.199Z,64.80
2023-03-05T23:01:24.228Z,62.72
2023-03-05T23:03:58.353Z,53.25
2023-03-05T23:06:26.186Z,56.10
2023-03-05T23:08:53.614Z,59.53
2023-03-05T23:11:21.058Z,52.47
2023-03-05T23:13:48.615Z,47.47
2023-03-05T23:16:16.456Z,54.33
2023-03-05T23:18:43.870Z,36.67
2023-03-05T23:21:11.288Z,52.50
2023-03-05T23:23:39.053Z,41.17
2023-03-05T23:26:06.386Z,42.53
2023-03-05T23:28:33.834Z,41.80
2023-03-05T23:31:02.708Z,46.35
2023-03-05T23:33:30.038Z,44.58
2023-03-05T23:35:59.041Z,56.78
2023-03-05T23:38:27.761Z,65.95
2023-03-05T23:40:57.622Z,52.95
2023-03-05T23:43:26.746Z,59.13
2023-03-05T23:45:54.917Z,49.30
2023-03-05T23:48:23.168Z,49.88
2023-03-05T23:50:50.881Z,44.72
2023-03-05T23:53:23.259Z,47.60
2023-03-05T23:55:50.924Z,58.53
2023-03-05T23:58:20.321Z,83.20
